createdAt,value
2016-12-26T00:00:48.479Z,1017.68
2016-12-26T00:01:59.469Z,1017.83
2016-12-26T00:03:10.454Z,1017.79
2016-12-26T00:04:21.693Z,1017.82
2016-12-26T00:05:32.707Z,1017.89
2016-12-26T00:06:43.742Z,1017.8
2016-12-26T00:07:54.732Z,1017.82
2016-12-26T00:09:05.714Z,1017.8
2016-12-26T00:10:17.010Z,1017.86
2016-12-26T00:11:28.003Z,1017.81
2016-12-26T00:12:38.989Z,1017.82
2016-12-26T00:13:49.970Z,1017.82
2016-12-26T00:15:00.962Z,1017.83
2016-12-26T00:16:11.998Z,1017.78
2016-12-26T00:17:22.980Z,1017.75
2016-12-26T00:18:34.210Z,1017.78
2016-12-26T00:19:45.199Z,1017.72
2016-12-26T00:20:56.187Z,1017.77
2016-12-26T00:22:07.222Z,1017.75
2016-12-26T00:23:18.206Z,1017.77
2016-12-26T00:24:29.228Z,1017.83
2016-12-26T00:25:40.215Z,1017.85
2016-12-26T00:26:51.205Z,1017.85
2016-12-26T00:28:02.243Z,1017.75
2016-12-26T00:29:13.231Z,1017.8
2016-12-26T00:30:24.219Z,1017.82
2016-12-26T00:31:35.209Z,1017.78
2016-12-26T00:32:46.195Z,1017.77
2016-12-26T00:33:57.431Z,1017.78
2016-12-26T00:35:08.616Z,1017.72
2016-12-26T00:36:19.803Z,1017.64
2016-12-26T00:37:30.790Z,1017.68
2016-12-26T00:38:41.802Z,1017.72
2016-12-26T00:39:52.837Z,1017.7
2016-12-26T00:41:03.826Z,1017.77
2016-12-26T00:42:15.015Z,1017.76
2016-12-26T00:43:25.997Z,1017.76
2016-12-26T00:44:36.992Z,1017.68
2016-12-26T00:45:48.048Z,1017.69
2016-12-26T00:46:59.038Z,1017.7
2016-12-26T00:48:10.024Z,1017.67
2016-12-26T00:49:21.207Z,1017.67
2016-12-26T00:50:32.187Z,1017.65
2016-12-26T00:51:43.224Z,1017.6
2016-12-26T00:52:54.210Z,1017.56
2016-12-26T00:54:05.214Z,1017.54
2016-12-26T00:55:16.434Z,1017.56
2016-12-26T00:56:27.413Z,1017.55
2016-12-26T00:57:38.851Z,1017.59
2016-12-26T00:58:49.843Z,1017.58
2016-12-26T01:00:00.835Z,1017.54
2016-12-26T01:01:11.823Z,1017.6
2016-12-26T01:02:22.807Z,1017.56
2016-12-26T01:03:33.860Z,1017.52
2016-12-26T01:04:44.844Z,1017.56
2016-12-26T01:05:55.827Z,1017.52
2016-12-26T01:07:06.819Z,1017.48
2016-12-26T01:08:17.811Z,1017.45
2016-12-26T01:09:28.858Z,1017.4
2016-12-26T01:10:39.854Z,1017.46
2016-12-26T01:11:50.846Z,1017.4
2016-12-26T01:13:01.826Z,1017.43
2016-12-26T01:14:13.020Z,1017.4
2016-12-26T01:15:24.060Z,1017.35
2016-12-26T01:16:35.261Z,1017.43
2016-12-26T01:17:46.241Z,1017.36
2016-12-26T01:18:57.229Z,1017.44
2016-12-26T01:20:08.208Z,1017.42
2016-12-26T01:21:19.244Z,1017.43
2016-12-26T01:22:30.231Z,1017.4
2016-12-26T01:23:41.223Z,1017.44
2016-12-26T01:24:52.207Z,1017.36
2016-12-26T01:26:03.219Z,1017.35
2016-12-26T01:27:14.259Z,1017.43
2016-12-26T01:28:25.247Z,1017.35
2016-12-26T01:29:36.226Z,1017.34
2016-12-26T01:30:47.212Z,1017.35
2016-12-26T01:31:58.197Z,1017.26
2016-12-26T01:33:09.232Z,1017.31
2016-12-26T01:34:20.422Z,1017.39
2016-12-26T01:35:31.411Z,1017.35
2016-12-26T01:36:42.604Z,1017.35
2016-12-26T01:37:53.594Z,1017.39
2016-12-26T01:39:04.629Z,1017.35
2016-12-26T01:40:15.822Z,1017.49
2016-12-26T01:41:27.217Z,1017.41
2016-12-26T01:42:38.205Z,1017.38
2016-12-26T01:43:49.199Z,1017.39
2016-12-26T01:45:00.224Z,1017.33
2016-12-26T01:46:11.207Z,1017.31
2016-12-26T01:47:22.195Z,1017.33
2016-12-26T01:48:33.177Z,1017.35
2016-12-26T01:49:44.165Z,1017.24
2016-12-26T01:50:55.196Z,1017.26
2016-12-26T01:52:06.186Z,1017.26
2016-12-26T01:53:17.165Z,1017.21
2016-12-26T01:54:28.367Z,1017.29
2016-12-26T01:55:39.348Z,1017.17
2016-12-26T01:56:50.388Z,1017.2
2016-12-26T01:58:01.377Z,1017.23
2016-12-26T01:59:12.363Z,1017.21
2016-12-26T02:00:23.359Z,1017.27
2016-12-26T02:01:34.345Z,1017.2
2016-12-26T02:02:45.382Z,1017.25
2016-12-26T02:03:56.383Z,1017.23
2016-12-26T02:05:07.361Z,1017.17
2016-12-26T02:06:18.550Z,1017.22
2016-12-26T02:07:29.741Z,1017.22
2016-12-26T02:08:40.979Z,1017.18
2016-12-26T02:09:51.971Z,1017.2
2016-12-26T02:11:02.951Z,1017.18
2016-12-26T02:12:13.943Z,1017.23
2016-12-26T02:13:24.928Z,1017.2
2016-12-26T02:14:35.967Z,1017.24
2016-12-26T02:15:46.949Z,1017.22
2016-12-26T02:16:57.933Z,1017.18
2016-12-26T02:18:08.917Z,1017.19
2016-12-26T02:19:19.904Z,1017.11
2016-12-26T02:20:30.938Z,1017.22
2016-12-26T02:21:41.929Z,1017.18
2016-12-26T02:22:52.912Z,1017.2
2016-12-26T02:24:03.908Z,1017.19
2016-12-26T02:25:14.904Z,1017.27
2016-12-26T02:26:25.945Z,1017.09
2016-12-26T02:27:37.333Z,1017.19
2016-12-26T02:28:48.312Z,1017.17
2016-12-26T02:29:59.304Z,1017.19
2016-12-26T02:31:10.285Z,1017.15
2016-12-26T02:32:21.546Z,1017.14
2016-12-26T02:33:32.737Z,1017.14
2016-12-26T02:34:43.717Z,1017.08
2016-12-26T02:35:54.712Z,1017.13
2016-12-26T02:37:05.704Z,1017.06
2016-12-26T02:38:16.744Z,1017.15
2016-12-26T02:39:27.728Z,1017.08
2016-12-26T02:40:38.719Z,1017.09
2016-12-26T02:41:49.702Z,1017.14
2016-12-26T02:43:00.691Z,1017.11
2016-12-26T02:44:11.721Z,1017.13
2016-12-26T02:45:22.714Z,1017.12
2016-12-26T02:46:33.694Z,1017.03
2016-12-26T02:47:44.676Z,1017.04
2016-12-26T02:48:55.662Z,1016.95
2016-12-26T02:50:06.700Z,1017.01
2016-12-26T02:51:17.703Z,1016.97
2016-12-26T02:52:28.688Z,1016.93
2016-12-26T02:53:39.882Z,1017.02
2016-12-26T02:54:50.868Z,1016.83
2016-12-26T02:56:01.905Z,1016.91
2016-12-26T02:57:13.092Z,1016.93
2016-12-26T02:58:24.078Z,1016.89
2016-12-26T02:59:35.069Z,1016.96
2016-12-26T03:00:46.056Z,1017.04
2016-12-26T03:01:57.092Z,1016.96
2016-12-26T03:03:08.084Z,1016.87
2016-12-26T03:04:19.064Z,1016.92
2016-12-26T03:05:30.074Z,1016.83
2016-12-26T03:06:41.262Z,1016.94
2016-12-26T03:07:52.300Z,1016.94
2016-12-26T03:09:03.293Z,1016.87
2016-12-26T03:10:14.479Z,1016.82
2016-12-26T03:11:25.676Z,1016.82
2016-12-26T03:12:36.662Z,1016.86
2016-12-26T03:13:47.706Z,1016.9
2016-12-26T03:14:58.691Z,1016.87
2016-12-26T03:16:09.677Z,1016.92
2016-12-26T03:17:20.664Z,1016.94
2016-12-26T03:18:31.681Z,1016.95
2016-12-26T03:19:42.718Z,1016.96
2016-12-26T03:20:53.909Z,1016.89
2016-12-26T03:22:04.895Z,1016.83
2016-12-26T03:23:15.889Z,1016.83
2016-12-26T03:24:26.878Z,1016.81
2016-12-26T03:25:37.914Z,1016.76
2016-12-26T03:26:48.897Z,1016.75
2016-12-26T03:27:59.880Z,1016.79
2016-12-26T03:29:10.868Z,1016.79
2016-12-26T03:30:21.858Z,1016.78
2016-12-26T03:31:32.895Z,1016.73
2016-12-26T03:32:43.884Z,1016.76
2016-12-26T03:33:55.069Z,1016.72
2016-12-26T03:35:06.251Z,1016.79
2016-12-26T03:36:17.435Z,1016.79
2016-12-26T03:37:28.472Z,1016.75
2016-12-26T03:38:39.458Z,1016.74
2016-12-26T03:39:50.443Z,1016.67
2016-12-26T03:41:01.635Z,1016.73
2016-12-26T03:42:12.627Z,1016.68
2016-12-26T03:43:23.667Z,1016.62
2016-12-26T03:44:34.656Z,1016.59
2016-12-26T03:45:45.641Z,1016.64
2016-12-26T03:46:56.831Z,1016.63
2016-12-26T03:48:07.821Z,1016.59
2016-12-26T03:49:18.859Z,1016.56
2016-12-26T03:50:29.845Z,1016.54
2016-12-26T03:51:40.826Z,1016.59
2016-12-26T03:52:51.819Z,1016.52
2016-12-26T03:54:03.016Z,1016.57
2016-12-26T03:55:14.255Z,1016.56
2016-12-26T03:56:25.250Z,1016.55
2016-12-26T03:57:36.240Z,1016.58
2016-12-26T03:58:47.441Z,1016.62
2016-12-26T03:59:58.625Z,1016.54
2016-12-26T04:01:09.658Z,1016.57
2016-12-26T04:02:20.666Z,1016.54
2016-12-26T04:03:31.645Z,1016.57
2016-12-26T04:04:42.638Z,1016.57
2016-12-26T04:05:53.633Z,1016.53
2016-12-26T04:07:04.662Z,1016.44
2016-12-26T04:08:15.653Z,1016.43
2016-12-26T04:09:26.677Z,1016.5
2016-12-26T04:10:37.672Z,1016.47
2016-12-26T04:11:48.868Z,1016.45
2016-12-26T04:12:59.910Z,1016.48
2016-12-26T04:14:10.900Z,1016.52
2016-12-26T04:15:22.088Z,1016.49
2016-12-26T04:16:33.085Z,1016.42
2016-12-26T04:17:44.071Z,1016.42
2016-12-26T04:18:55.112Z,1016.42
2016-12-26T04:20:06.097Z,1016.38
2016-12-26T04:21:17.081Z,1016.37
2016-12-26T04:22:28.071Z,1016.38
2016-12-26T04:23:39.258Z,1016.42
2016-12-26T04:24:50.298Z,1016.4
2016-12-26T04:26:01.285Z,1016.25
2016-12-26T04:27:12.266Z,1016.36
2016-12-26T04:28:23.254Z,1016.29
2016-12-26T04:29:34.236Z,1016.37
2016-12-26T04:30:45.476Z,1016.32
2016-12-26T04:31:56.473Z,1016.33
2016-12-26T04:33:07.667Z,1016.38
2016-12-26T04:34:18.859Z,1016.31
2016-12-26T04:35:29.842Z,1016.36
2016-12-26T04:36:41.084Z,1016.34
2016-12-26T04:37:52.067Z,1016.39
2016-12-26T04:39:03.053Z,1016.33
2016-12-26T04:40:14.041Z,1016.35
2016-12-26T04:41:25.035Z,1016.29
2016-12-26T04:42:36.110Z,1016.3
2016-12-26T04:43:47.096Z,1016.37
2016-12-26T04:44:58.089Z,1016.41
2016-12-26T04:46:09.271Z,1016.36
2016-12-26T04:47:20.460Z,1016.29
2016-12-26T04:48:31.501Z,1016.35
2016-12-26T04:49:42.489Z,1016.38
2016-12-26T04:50:53.681Z,1016.36
2016-12-26T04:52:04.674Z,1016.33
2016-12-26T04:53:15.664Z,1016.39
2016-12-26T04:54:26.699Z,1016.28
2016-12-26T04:55:37.688Z,1016.34
2016-12-26T04:56:49.081Z,1016.39
2016-12-26T04:58:00.069Z,1016.34
2016-12-26T04:59:11.053Z,1016.35
2016-12-26T05:00:22.092Z,1016.42
2016-12-26T05:01:33.076Z,1016.39
2016-12-26T05:02:44.264Z,1016.36
2016-12-26T05:03:55.248Z,1016.41
2016-12-26T05:05:06.238Z,1016.3
2016-12-26T05:06:17.274Z,1016.31
2016-12-26T05:07:28.269Z,1016.32
2016-12-26T05:08:39.452Z,1016.27
2016-12-26T05:09:50.461Z,1016.19
2016-12-26T05:11:01.473Z,1016.3
2016-12-26T05:12:12.509Z,1016.19
2016-12-26T05:13:23.492Z,1016.15
2016-12-26T05:14:34.479Z,1016.24
2016-12-26T05:15:45.671Z,1016.2
2016-12-26T05:16:56.663Z,1016.24
2016-12-26T05:18:07.723Z,1016.14
2016-12-26T05:19:18.716Z,1016.21
2016-12-26T05:20:29.701Z,1016.21
2016-12-26T05:21:40.687Z,1016.22
2016-12-26T05:22:51.710Z,1016.19
2016-12-26T05:24:02.950Z,1016.22
2016-12-26T05:25:13.932Z,1016.31
2016-12-26T05:26:24.916Z,1016.22
2016-12-26T05:27:35.906Z,1016.25
2016-12-26T05:28:46.912Z,1016.06
2016-12-26T05:29:57.944Z,1016.11
2016-12-26T05:31:08.928Z,1016.03
2016-12-26T05:32:19.915Z,1016.07
2016-12-26T05:33:31.104Z,1016.08
2016-12-26T05:34:42.082Z,1016.14
2016-12-26T05:35:53.115Z,1016.17
2016-12-26T05:37:04.100Z,1016.17
2016-12-26T05:38:15.085Z,1016.15
2016-12-26T05:39:26.081Z,1016.13
2016-12-26T05:40:37.071Z,1016.09
2016-12-26T05:41:48.101Z,1016.11
2016-12-26T05:42:59.091Z,1016.05
2016-12-26T05:44:10.114Z,1016.1
2016-12-26T05:45:21.102Z,1016.13
2016-12-26T05:46:32.299Z,1016.18
2016-12-26T05:47:43.532Z,1016.15
2016-12-26T05:48:54.519Z,1016.21
2016-12-26T05:50:05.513Z,1016.19
2016-12-26T05:51:16.504Z,1016.21
2016-12-26T05:52:27.524Z,1016.21
2016-12-26T05:53:38.560Z,1016.3
2016-12-26T05:54:49.554Z,1016.24
2016-12-26T05:56:00.746Z,1016.19
2016-12-26T05:57:11.930Z,1016.18
2016-12-26T05:58:22.915Z,1016.25
2016-12-26T05:59:34.165Z,1016.23
2016-12-26T06:00:45.155Z,1016.21
2016-12-26T06:01:56.143Z,1016.23
2016-12-26T06:03:07.120Z,1016.26
2016-12-26T06:04:18.102Z,1016.21
2016-12-26T06:05:29.145Z,1016.2
2016-12-26T06:06:40.360Z,1016.22
2016-12-26T06:07:51.554Z,1016.26
2016-12-26T06:09:02.536Z,1016.32
2016-12-26T06:10:13.521Z,1016.31
2016-12-26T06:11:24.753Z,1016.33
2016-12-26T06:12:35.953Z,1016.35
2016-12-26T06:13:46.940Z,1016.27
2016-12-26T06:14:57.930Z,1016.37
2016-12-26T06:16:08.910Z,1016.37
2016-12-26T06:17:19.954Z,1016.33
2016-12-26T06:18:30.944Z,1016.37
2016-12-26T06:19:41.935Z,1016.39
2016-12-26T06:20:52.935Z,1016.35
2016-12-26T06:22:03.916Z,1016.32
2016-12-26T06:23:14.950Z,1016.28
2016-12-26T06:24:25.965Z,1016.31
2016-12-26T06:25:36.947Z,1016.25
2016-12-26T06:26:47.930Z,1016.21
2016-12-26T06:27:59.128Z,1016.22
2016-12-26T06:29:10.179Z,1016.34
2016-12-26T06:30:21.166Z,1016.3
2016-12-26T06:31:32.355Z,1016.32
2016-12-26T06:32:43.538Z,1016.28
2016-12-26T06:33:54.525Z,1016.27
2016-12-26T06:35:05.561Z,1016.27
2016-12-26T06:36:16.550Z,1016.28
2016-12-26T06:37:27.738Z,1016.21
2016-12-26T06:38:39.127Z,1016.18
2016-12-26T06:39:50.114Z,1016.22
2016-12-26T06:41:01.146Z,1016.24
2016-12-26T06:42:12.127Z,1016.18
2016-12-26T06:43:23.115Z,1016.16
2016-12-26T06:44:34.107Z,1016.22
2016-12-26T06:45:45.097Z,1016.2
2016-12-26T06:46:56.134Z,1016.29
2016-12-26T06:48:07.129Z,1016.21
2016-12-26T06:49:18.112Z,1016.31
2016-12-26T06:50:29.103Z,1016.17
2016-12-26T06:51:40.097Z,1016.24
2016-12-26T06:52:51.139Z,1016.19
2016-12-26T06:54:02.134Z,1016.21
2016-12-26T06:55:13.127Z,1016.13
2016-12-26T06:56:24.115Z,1016.13
2016-12-26T06:57:35.304Z,1016.11
2016-12-26T06:58:46.333Z,1016.12
2016-12-26T06:59:57.322Z,1016.08
2016-12-26T07:01:08.310Z,1016.13
2016-12-26T07:02:19.298Z,1016.1
2016-12-26T07:03:30.291Z,1016.07
2016-12-26T07:04:41.324Z,1016.06
2016-12-26T07:05:52.311Z,1016.05
2016-12-26T07:07:03.303Z,1016.1
2016-12-26T07:08:14.300Z,1016.04
2016-12-26T07:09:25.295Z,1016.04
2016-12-26T07:10:36.338Z,1015.99
2016-12-26T07:11:47.321Z,1016.02
2016-12-26T07:12:58.333Z,1016.01
2016-12-26T07:14:09.320Z,1016.04
2016-12-26T07:15:20.302Z,1016.03
2016-12-26T07:16:31.543Z,1016.03
2016-12-26T07:17:42.527Z,1016.08
2016-12-26T07:18:53.523Z,1016
2016-12-26T07:20:04.508Z,1016.02
2016-12-26T07:21:15.492Z,1015.97
2016-12-26T07:22:26.739Z,1016.08
2016-12-26T07:23:37.952Z,1015.92
2016-12-26T07:24:48.938Z,1015.99
2016-12-26T07:25:59.936Z,1015.98
2016-12-26T07:27:10.928Z,1016.03
2016-12-26T07:28:21.969Z,1015.98
2016-12-26T07:29:32.954Z,1015.94
2016-12-26T07:30:43.945Z,1016.01
2016-12-26T07:31:54.933Z,1015.94
2016-12-26T07:33:05.920Z,1015.94
2016-12-26T07:34:17.114Z,1015.96
2016-12-26T07:35:28.103Z,1015.91
2016-12-26T07:36:39.086Z,1015.92
2016-12-26T07:37:50.112Z,1015.96
2016-12-26T07:39:01.099Z,1015.92
2016-12-26T07:40:12.128Z,1015.98
2016-12-26T07:41:23.114Z,1015.93
2016-12-26T07:42:34.128Z,1015.93
2016-12-26T07:43:45.111Z,1015.99
2016-12-26T07:44:56.094Z,1016.01
2016-12-26T07:46:07.127Z,1015.99
2016-12-26T07:47:18.152Z,1016.02
2016-12-26T07:48:29.139Z,1016.04
2016-12-26T07:49:40.146Z,1016.04
2016-12-26T07:50:51.358Z,1016.02
2016-12-26T07:52:02.339Z,1015.99
2016-12-26T07:53:13.328Z,1016.01
2016-12-26T07:54:24.314Z,1016.06
2016-12-26T07:55:35.302Z,1016.05
2016-12-26T07:56:46.296Z,1016.06
2016-12-26T07:57:57.336Z,1016.04
2016-12-26T07:59:08.528Z,1016.11
2016-12-26T08:00:19.511Z,1016.12
2016-12-26T08:01:30.519Z,1016.15
2016-12-26T08:02:41.556Z,1016.16
2016-12-26T08:03:52.545Z,1016.16
2016-12-26T08:05:03.525Z,1016.17
2016-12-26T08:06:14.742Z,1016.26
2016-12-26T08:07:25.739Z,1016.45
2016-12-26T08:08:36.789Z,1016.61
2016-12-26T08:09:47.782Z,1016.78
2016-12-26T08:10:58.791Z,1016.9
2016-12-26T08:12:09.773Z,1016.93
2016-12-26T08:13:20.762Z,1017.04
2016-12-26T08:14:31.806Z,1017.13
2016-12-26T08:15:42.794Z,1017.11
2016-12-26T08:16:53.770Z,1017.09
2016-12-26T08:18:04.761Z,1017.31
2016-12-26T08:19:15.752Z,1017.33
2016-12-26T08:20:26.790Z,1017.33
2016-12-26T08:21:37.780Z,1017.43
2016-12-26T08:22:48.760Z,1017.47
2016-12-26T08:23:59.749Z,1017.55
2016-12-26T08:25:10.731Z,1017.56
2016-12-26T08:26:21.962Z,1017.65
2016-12-26T08:27:33.146Z,1017.72
2016-12-26T08:28:44.136Z,1017.69
2016-12-26T08:29:55.115Z,1017.78
2016-12-26T08:31:06.112Z,1017.79
2016-12-26T08:32:17.550Z,1017.84
2016-12-26T08:33:28.735Z,1017.87
2016-12-26T08:34:39.722Z,1017.86
2016-12-26T08:35:50.910Z,1017.93
2016-12-26T08:37:01.907Z,1017.91
2016-12-26T08:38:12.938Z,1018
2016-12-26T08:39:23.911Z,1018
2016-12-26T08:40:34.899Z,1017.97
2016-12-26T08:41:45.889Z,1017.99
2016-12-26T08:42:56.872Z,1017.96
2016-12-26T08:44:07.903Z,1018.01
2016-12-26T08:45:18.891Z,1018.11
2016-12-26T08:46:29.876Z,1018.1
2016-12-26T08:47:41.070Z,1018.14
2016-12-26T08:48:52.056Z,1018.14
2016-12-26T08:50:03.098Z,1018.2
2016-12-26T08:51:14.287Z,1018.21
2016-12-26T08:52:25.277Z,1018.28
2016-12-26T08:53:36.274Z,1018.19
2016-12-26T08:54:47.265Z,1018.18
2016-12-26T08:55:58.491Z,1018.21
2016-12-26T08:57:09.677Z,1018.2
2016-12-26T08:58:20.675Z,1018.15
2016-12-26T08:59:31.665Z,1018.24
2016-12-26T09:00:42.660Z,1018.2
2016-12-26T09:01:53.696Z,1018.25
2016-12-26T09:03:04.681Z,1018.23
2016-12-26T09:04:15.672Z,1018.35
2016-12-26T09:05:26.664Z,1018.44
2016-12-26T09:06:38.051Z,1018.39
2016-12-26T09:07:49.096Z,1018.49
2016-12-26T09:09:00.080Z,1018.47
2016-12-26T09:10:11.063Z,1018.56
2016-12-26T09:11:22.047Z,1018.57
2016-12-26T09:12:33.034Z,1018.61
2016-12-26T09:13:44.279Z,1018.68
2016-12-26T09:14:55.269Z,1018.71
2016-12-26T09:16:06.259Z,1018.78
2016-12-26T09:17:17.241Z,1018.76
2016-12-26T09:18:28.226Z,1018.79
2016-12-26T09:19:39.261Z,1018.79
2016-12-26T09:20:50.253Z,1018.88
2016-12-26T09:22:01.238Z,1018.78
2016-12-26T09:23:12.220Z,1018.68
2016-12-26T09:24:23.207Z,1018.63
2016-12-26T09:25:34.251Z,1018.68
2016-12-26T09:26:45.237Z,1018.71
2016-12-26T09:27:56.218Z,1018.82
2016-12-26T09:29:07.232Z,1018.88
2016-12-26T09:30:18.218Z,1018.88
2016-12-26T09:31:29.257Z,1018.94
2016-12-26T09:32:40.245Z,1018.93
2016-12-26T09:33:51.462Z,1019
2016-12-26T09:35:02.472Z,1018.97
2016-12-26T09:36:13.459Z,1019.02
2016-12-26T09:37:24.495Z,1018.99
2016-12-26T09:38:35.476Z,1019.02
2016-12-26T09:39:46.462Z,1018.98
2016-12-26T09:40:57.440Z,1018.93
2016-12-26T09:42:08.421Z,1018.87
2016-12-26T09:43:19.656Z,1018.91
2016-12-26T09:44:30.847Z,1018.84
2016-12-26T09:45:41.841Z,1018.93
2016-12-26T09:46:52.827Z,1018.92
2016-12-26T09:48:04.020Z,1018.97
2016-12-26T09:49:15.062Z,1018.95
2016-12-26T09:50:26.042Z,1018.97
2016-12-26T09:51:37.032Z,1019
2016-12-26T09:52:48.244Z,1019.12
2016-12-26T09:53:59.229Z,1019.1
2016-12-26T09:55:10.263Z,1019.2
2016-12-26T09:56:21.249Z,1019.07
2016-12-26T09:57:32.241Z,1019.03
2016-12-26T09:58:43.225Z,1019.07
2016-12-26T09:59:54.231Z,1019.13
2016-12-26T10:01:05.211Z,1019.12
2016-12-26T10:02:16.216Z,1019.07
2016-12-26T10:03:27.400Z,1019.1
2016-12-26T10:04:38.388Z,1019.24
2016-12-26T10:05:49.382Z,1019.37
2016-12-26T10:07:00.418Z,1019.38
2016-12-26T10:08:11.400Z,1019.43
2016-12-26T10:09:22.586Z,1019.52
2016-12-26T10:10:33.571Z,1019.51
2016-12-26T10:11:44.611Z,1019.5
2016-12-26T10:12:55.598Z,1019.43
2016-12-26T10:14:06.584Z,1019.47
2016-12-26T10:15:17.572Z,1019.43
2016-12-26T10:16:28.787Z,1019.45
2016-12-26T10:17:39.844Z,1019.51
2016-12-26T10:18:51.037Z,1019.47
2016-12-26T10:20:02.024Z,1019.48
2016-12-26T10:21:13.015Z,1019.49
2016-12-26T10:22:24.007Z,1019.44
2016-12-26T10:23:35.046Z,1019.41
2016-12-26T10:24:46.029Z,1019.5
2016-12-26T10:25:57.215Z,1019.48
2016-12-26T10:27:08.400Z,1019.5
2016-12-26T10:28:19.385Z,1019.53
2016-12-26T10:29:30.625Z,1019.46
2016-12-26T10:30:41.621Z,1019.51
2016-12-26T10:31:52.599Z,1019.55
2016-12-26T10:33:03.587Z,1019.7
2016-12-26T10:34:14.588Z,1019.72
2016-12-26T10:35:25.623Z,1019.72
2016-12-26T10:36:36.605Z,1019.73
2016-12-26T10:37:47.585Z,1019.77
2016-12-26T10:38:58.572Z,1019.74
2016-12-26T10:40:09.558Z,1019.81
2016-12-26T10:41:20.584Z,1019.86
2016-12-26T10:42:31.978Z,1019.9
2016-12-26T10:43:42.966Z,1019.99
2016-12-26T10:44:53.950Z,1020.02
2016-12-26T10:46:04.969Z,1020.03
2016-12-26T10:47:15.993Z,1020.01
2016-12-26T10:48:26.980Z,1019.96
2016-12-26T10:49:37.970Z,1020.01
2016-12-26T10:50:48.947Z,1020.01
2016-12-26T10:51:59.933Z,1019.98
2016-12-26T10:53:10.966Z,1019.98
2016-12-26T10:54:21.955Z,1020.03
2016-12-26T10:55:32.939Z,1019.97
2016-12-26T10:56:44.125Z,1020.05
2016-12-26T10:57:55.127Z,1020.08
2016-12-26T10:59:06.114Z,1020.07
2016-12-26T11:00:17.106Z,1020.04
2016-12-26T11:01:28.300Z,1020.04
2016-12-26T11:02:39.485Z,1020.09
2016-12-26T11:03:50.514Z,1020.07
2016-12-26T11:05:01.501Z,1019.98
2016-12-26T11:06:12.692Z,1019.98
2016-12-26T11:07:23.684Z,1020.02
2016-12-26T11:08:34.702Z,1020.01
2016-12-26T11:09:45.743Z,1020.07
2016-12-26T11:10:56.724Z,1020.05
2016-12-26T11:12:07.711Z,1020.01
2016-12-26T11:13:18.906Z,1019.98
2016-12-26T11:14:30.096Z,1020.04
2016-12-26T11:15:41.133Z,1019.97
2016-12-26T11:16:52.125Z,1020.01
2016-12-26T11:18:03.111Z,1020.13
2016-12-26T11:19:14.099Z,1020.13
2016-12-26T11:20:25.077Z,1020.15
2016-12-26T11:21:36.113Z,1020.15
2016-12-26T11:22:47.105Z,1020.18
2016-12-26T11:23:58.092Z,1020.15
2016-12-26T11:25:09.070Z,1020.28
2016-12-26T11:26:20.052Z,1020.22
2016-12-26T11:27:31.097Z,1020.11
2016-12-26T11:28:42.083Z,1020.18
2016-12-26T11:29:53.074Z,1020.11
2016-12-26T11:31:04.062Z,1020.19
2016-12-26T11:32:15.074Z,1020.13
2016-12-26T11:33:26.107Z,1020.19
2016-12-26T11:34:37.083Z,1020.26
2016-12-26T11:35:48.269Z,1020.23
2016-12-26T11:36:59.458Z,1020.15
2016-12-26T11:38:10.445Z,1020.14
2016-12-26T11:39:21.673Z,1020.21
2016-12-26T11:40:32.654Z,1020.09
2016-12-26T11:41:43.643Z,1020.17
2016-12-26T11:42:54.824Z,1020.18
2016-12-26T11:44:05.807Z,1020.19
2016-12-26T11:45:16.844Z,1020.14
2016-12-26T11:46:27.830Z,1020.11
2016-12-26T11:47:38.816Z,1020.2
2016-12-26T11:48:49.798Z,1020.17
2016-12-26T11:50:00.788Z,1020.31
2016-12-26T11:51:11.827Z,1020.18
2016-12-26T11:52:22.814Z,1020.23
2016-12-26T11:53:33.791Z,1020.21
2016-12-26T11:54:44.783Z,1020.2
2016-12-26T11:55:55.770Z,1020.11
2016-12-26T11:57:06.764Z,1020
2016-12-26T11:58:17.964Z,1020.17
2016-12-26T11:59:29.182Z,1020.12
2016-12-26T12:00:40.378Z,1020.15
2016-12-26T12:01:51.572Z,1020.35
2016-12-26T12:03:02.613Z,1020.13
2016-12-26T12:04:13.599Z,1020.15
2016-12-26T12:05:24.586Z,1020.16
2016-12-26T12:06:35.577Z,1020.15
2016-12-26T12:07:46.565Z,1020.18
2016-12-26T12:08:57.744Z,1020.16
2016-12-26T12:10:08.732Z,1020.15
2016-12-26T12:11:19.715Z,1020.12
2016-12-26T12:12:30.702Z,1020.18
2016-12-26T12:13:41.742Z,1020.2
2016-12-26T12:14:52.728Z,1020.2
2016-12-26T12:16:03.722Z,1020.2
2016-12-26T12:17:14.716Z,1020.32
2016-12-26T12:18:25.902Z,1020.3
2016-12-26T12:19:36.941Z,1020.33
2016-12-26T12:20:47.921Z,1020.36
2016-12-26T12:21:58.912Z,1020.37
2016-12-26T12:23:09.928Z,1020.32
2016-12-26T12:24:21.116Z,1020.46
2016-12-26T12:25:32.155Z,1020.45
2016-12-26T12:26:43.145Z,1020.45
2016-12-26T12:27:54.134Z,1020.45
2016-12-26T12:29:05.317Z,1020.54
2016-12-26T12:30:16.308Z,1020.55
2016-12-26T12:31:27.295Z,1020.47
2016-12-26T12:32:38.311Z,1020.53
2016-12-26T12:33:49.307Z,1020.54
2016-12-26T12:35:00.287Z,1020.48
2016-12-26T12:36:11.778Z,1020.51
2016-12-26T12:37:23.171Z,1020.41
2016-12-26T12:38:34.577Z,1020.48
2016-12-26T12:39:45.566Z,1020.42
2016-12-26T12:40:56.983Z,1020.49
2016-12-26T12:42:08.023Z,1020.46
2016-12-26T12:43:19.009Z,1020.46
2016-12-26T12:44:29.996Z,1020.53
2016-12-26T12:45:40.985Z,1020.42
2016-12-26T12:46:52.372Z,1020.5
2016-12-26T12:48:03.406Z,1020.59
2016-12-26T12:49:14.391Z,1020.58
2016-12-26T12:50:25.371Z,1020.56
2016-12-26T12:51:36.366Z,1020.65
2016-12-26T12:52:47.357Z,1020.62
2016-12-26T12:53:58.346Z,1020.61
2016-12-26T12:55:09.335Z,1020.69
2016-12-26T12:56:20.310Z,1020.61
2016-12-26T12:57:31.363Z,1020.71
2016-12-26T12:58:42.405Z,1020.68
2016-12-26T12:59:53.395Z,1020.73
2016-12-26T13:01:04.589Z,1020.75
2016-12-26T13:02:15.580Z,1020.74
2016-12-26T13:03:26.767Z,1020.78
2016-12-26T13:04:37.804Z,1020.67
2016-12-26T13:05:48.793Z,1020.68
2016-12-26T13:06:59.801Z,1020.62
2016-12-26T13:08:10.786Z,1020.58
2016-12-26T13:09:21.770Z,1020.61
2016-12-26T13:10:32.838Z,1020.61
2016-12-26T13:11:43.829Z,1020.66
2016-12-26T13:12:54.818Z,1020.69
2016-12-26T13:14:05.815Z,1020.69
2016-12-26T13:15:16.814Z,1020.75
2016-12-26T13:16:28.060Z,1020.78
2016-12-26T13:17:39.076Z,1020.78
2016-12-26T13:18:50.293Z,1020.8
2016-12-26T13:20:01.480Z,1020.71
2016-12-26T13:21:12.469Z,1020.82
2016-12-26T13:22:23.510Z,1020.95
2016-12-26T13:23:34.494Z,1021
2016-12-26T13:24:45.480Z,1021.07
2016-12-26T13:25:56.466Z,1021
2016-12-26T13:27:07.703Z,1020.99
2016-12-26T13:28:18.696Z,1021.12
2016-12-26T13:29:29.688Z,1021.06
2016-12-26T13:30:40.872Z,1021.13
2016-12-26T13:31:51.855Z,1021.13
2016-12-26T13:33:02.889Z,1021.32
2016-12-26T13:34:13.874Z,1021.15
2016-12-26T13:35:25.095Z,1021.3
2016-12-26T13:36:36.086Z,1021.33
2016-12-26T13:37:47.269Z,1021.38
2016-12-26T13:38:58.253Z,1021.34
2016-12-26T13:40:09.238Z,1021.37
2016-12-26T13:41:20.223Z,1021.47
2016-12-26T13:42:31.208Z,1021.42
2016-12-26T13:43:42.390Z,1021.49
2016-12-26T13:44:53.421Z,1021.31
2016-12-26T13:46:04.400Z,1021.49
2016-12-26T13:47:15.383Z,1021.53
2016-12-26T13:48:26.773Z,1021.53
2016-12-26T13:49:37.758Z,1021.55
2016-12-26T13:50:48.741Z,1021.56
2016-12-26T13:51:59.932Z,1021.59
2016-12-26T13:53:10.917Z,1021.6
2016-12-26T13:54:21.904Z,1021.66
2016-12-26T13:55:32.940Z,1021.65
2016-12-26T13:56:43.928Z,1021.73
2016-12-26T13:57:54.915Z,1021.69
2016-12-26T13:59:05.901Z,1021.81
2016-12-26T14:00:17.088Z,1021.89
2016-12-26T14:01:28.120Z,1021.82
2016-12-26T14:02:39.106Z,1021.88
2016-12-26T14:03:50.102Z,1021.82
2016-12-26T14:05:01.088Z,1021.81
2016-12-26T14:06:12.081Z,1021.89
2016-12-26T14:07:23.323Z,1021.87
2016-12-26T14:08:34.311Z,1021.84
2016-12-26T14:09:45.287Z,1021.93
2016-12-26T14:10:56.269Z,1021.96
2016-12-26T14:12:07.251Z,1022.01
2016-12-26T14:13:18.298Z,1021.97
2016-12-26T14:14:29.484Z,1021.99
2016-12-26T14:15:40.669Z,1022.09
2016-12-26T14:16:51.872Z,1022.14
2016-12-26T14:18:02.910Z,1022.18
2016-12-26T14:19:13.928Z,1022.19
2016-12-26T14:20:24.920Z,1022.31
2016-12-26T14:21:35.906Z,1022.33
2016-12-26T14:22:46.902Z,1022.38